sensor_id;sensor_type;location;lat;lon;timestamp;temperature;humidity
39023;DHT22;25908;51.984;5.928;2023-06-10T00:00:39;23.20;64.80
39023;DHT22;25908;51.984;5.928;2023-06-10T00:03:06;23.10;64.80
39023;DHT22;25908;51.984;5.928;2023-06-10T00:05:32;23.10;64.90
39023;DHT22;25908;51.984;5.928;2023-06-10T00:08:00;23.10;65.00
39023;DHT22;25908;51.984;5.928;2023-06-10T00:10:35;23.00;65.00
39023;DHT22;25908;51.984;5.928;2023-06-10T00:13:02;23.00;65.00
39023;DHT22;25908;51.984;5.928;2023-06-10T00:15:29;23.00;65.00
39023;DHT22;25908;51.984;5.928;2023-06-10T00:17:54;23.00;65.10
39023;DHT22;25908;51.984;5.928;2023-06-10T00:20:20;23.00;65.00
39023;DHT22;25908;51.984;5.928;2023-06-10T00:22:49;22.90;65.00
39023;DHT22;25908;51.984;5.928;2023-06-10T00:25:15;22.90;64.90
39023;DHT22;25908;51.984;5.928;2023-06-10T00:27:40;22.90;64.90
39023;DHT22;25908;51.984;5.928;2023-06-10T00:30:06;22.80;64.90
39023;DHT22;25908;51.984;5.928;2023-06-10T00:32:33;22.80;64.80
39023;DHT22;25908;51.984;5.928;2023-06-10T00:34:58;22.70;64.80
39023;DHT22;25908;51.984;5.928;2023-06-10T00:37:24;22.70;64.70
39023;DHT22;25908;51.984;5.928;2023-06-10T00:39:50;22.70;64.70
39023;DHT22;25908;51.984;5.928;2023-06-10T00:42:15;22.70;64.60
39023;DHT22;25908;51.984;5.928;2023-06-10T00:44:41;22.60;64.50
39023;DHT22;25908;51.984;5.928;2023-06-10T00:47:07;22.50;64.40
39023;DHT22;25908;51.984;5.928;2023-06-10T00:49:33;22.60;64.50
39023;DHT22;25908;51.984;5.928;2023-06-10T00:52:01;22.60;64.30
39023;DHT22;25908;51.984;5.928;2023-06-10T00:54:27;22.60;64.20
39023;DHT22;25908;51.984;5.928;2023-06-10T00:56:53;22.50;64.20
39023;DHT22;25908;51.984;5.928;2023-06-10T00:59:20;22.50;64.10
39023;DHT22;25908;51.984;5.928;2023-06-10T01:01:45;22.50;64.00
39023;DHT22;25908;51.984;5.928;2023-06-10T01:04:12;22.40;63.90
39023;DHT22;25908;51.984;5.928;2023-06-10T01:06:43;22.40;63.90
39023;DHT22;25908;51.984;5.928;2023-06-10T01:12:12;22.30;63.90
39023;DHT22;25908;51.984;5.928;2023-06-10T01:14:40;22.30;63.80
39023;DHT22;25908;51.984;5.928;2023-06-10T01:17:11;22.30;63.80
39023;DHT22;25908;51.984;5.928;2023-06-10T01:19:36;22.20;63.70
39023;DHT22;25908;51.984;5.928;2023-06-10T01:22:03;22.20;63.70
39023;DHT22;25908;51.984;5.928;2023-06-10T01:24:28;22.20;63.70
39023;DHT22;25908;51.984;5.928;2023-06-10T01:27:00;22.10;63.60
39023;DHT22;25908;51.984;5.928;2023-06-10T01:29:33;22.10;63.70
39023;DHT22;25908;51.984;5.928;2023-06-10T01:32:16;22.10;63.70
39023;DHT22;25908;51.984;5.928;2023-06-10T01:34:44;22.10;63.70
39023;DHT22;25908;51.984;5.928;2023-06-10T01:37:12;22.10;63.80
39023;DHT22;25908;51.984;5.928;2023-06-10T01:39:39;22.00;63.80
39023;DHT22;25908;51.984;5.928;2023-06-10T01:42:05;22.00;63.90
39023;DHT22;25908;51.984;5.928;2023-06-10T01:44:32;22.00;63.90
39023;DHT22;25908;51.984;5.928;2023-06-10T01:46:57;22.00;63.90
39023;DHT22;25908;51.984;5.928;2023-06-10T01:49:23;21.90;63.80
39023;DHT22;25908;51.984;5.928;2023-06-10T01:51:49;22.00;63.90
39023;DHT22;25908;51.984;5.928;2023-06-10T01:54:15;21.90;63.90
39023;DHT22;25908;51.984;5.928;2023-06-10T01:56:40;21.90;63.90
39023;DHT22;25908;51.984;5.928;2023-06-10T01:59:06;21.90;64.00
39023;DHT22;25908;51.984;5.928;2023-06-10T02:01:32;21.80;64.10
39023;DHT22;25908;51.984;5.928;2023-06-10T02:03:57;21.80;64.30
39023;DHT22;25908;51.984;5.928;2023-06-10T02:06:23;21.70;64.30
39023;DHT22;25908;51.984;5.928;2023-06-10T02:08:49;21.80;64.50
39023;DHT22;25908;51.984;5.928;2023-06-10T02:11:14;21.70;64.60
39023;DHT22;25908;51.984;5.928;2023-06-10T02:13:40;21.70;64.80
39023;DHT22;25908;51.984;5.928;2023-06-10T02:16:05;21.60;65.00
39023;DHT22;25908;51.984;5.928;2023-06-10T02:18:31;21.60;65.20
39023;DHT22;25908;51.984;5.928;2023-06-10T02:20:57;21.50;65.30
39023;DHT22;25908;51.984;5.928;2023-06-10T02:23:22;21.50;65.50
39023;DHT22;25908;51.984;5.928;2023-06-10T02:25:48;21.50;65.70
39023;DHT22;25908;51.984;5.928;2023-06-10T02:28:13;21.50;65.90
39023;DHT22;25908;51.984;5.928;2023-06-10T02:30:40;21.40;66.00
39023;DHT22;25908;51.984;5.928;2023-06-10T02:33:07;21.40;66.20
39023;DHT22;25908;51.984;5.928;2023-06-10T02:35:36;21.40;66.40
39023;DHT22;25908;51.984;5.928;2023-06-10T02:38:02;21.40;66.70
39023;DHT22;25908;51.984;5.928;2023-06-10T02:40:27;21.30;66.80
39023;DHT22;25908;51.984;5.928;2023-06-10T02:42:53;21.30;67.00
39023;DHT22;25908;51.984;5.928;2023-06-10T02:45:19;21.30;67.20
39023;DHT22;25908;51.984;5.928;2023-06-10T02:47:44;21.30;67.30
39023;DHT22;25908;51.984;5.928;2023-06-10T02:50:10;21.20;67.50
39023;DHT22;25908;51.984;5.928;2023-06-10T02:52:35;21.20;67.50
39023;DHT22;25908;51.984;5.928;2023-06-10T02:55:01;21.20;67.70
39023;DHT22;25908;51.984;5.928;2023-06-10T02:57:26;21.20;67.80
39023;DHT22;25908;51.984;5.928;2023-06-10T02:59:52;21.20;68.10
39023;DHT22;25908;51.984;5.928;2023-06-10T03:02:18;21.10;68.30
39023;DHT22;25908;51.984;5.928;2023-06-10T03:04:44;21.10;68.30
39023;DHT22;25908;51.984;5.928;2023-06-10T03:07:10;21.00;68.40
39023;DHT22;25908;51.984;5.928;2023-06-10T03:09:37;21.10;68.60
39023;DHT22;25908;51.984;5.928;2023-06-10T03:12:02;21.00;68.70
39023;DHT22;25908;51.984;5.928;2023-06-10T03:14:28;21.10;69.00
39023;DHT22;25908;51.984;5.928;2023-06-10T03:16:54;21.00;69.10
39023;DHT22;25908;51.984;5.928;2023-06-10T03:19:19;21.00;69.30
39023;DHT22;25908;51.984;5.928;2023-06-10T03:21:49;20.90;69.30
39023;DHT22;25908;51.984;5.928;2023-06-10T03:24:20;20.90;69.40
39023;DHT22;25908;51.984;5.928;2023-06-10T03:26:45;20.90;69.60
39023;DHT22;25908;51.984;5.928;2023-06-10T03:29:11;20.90;69.70
39023;DHT22;25908;51.984;5.928;2023-06-10T03:31:37;20.70;69.80
39023;DHT22;25908;51.984;5.928;2023-06-10T03:34:04;20.80;70.20
39023;DHT22;25908;51.984;5.928;2023-06-10T03:36:29;20.70;70.30
39023;DHT22;25908;51.984;5.928;2023-06-10T03:38:55;20.70;70.40
39023;DHT22;25908;51.984;5.928;2023-06-10T03:41:22;20.60;70.40
39023;DHT22;25908;51.984;5.928;2023-06-10T03:43:48;20.70;70.60
39023;DHT22;25908;51.984;5.928;2023-06-10T03:46:13;20.70;70.80
39023;DHT22;25908;51.984;5.928;2023-06-10T03:48:39;20.60;70.80
39023;DHT22;25908;51.984;5.928;2023-06-10T03:51:05;20.60;70.90
39023;DHT22;25908;51.984;5.928;2023-06-10T03:53:30;20.60;71.00
39023;DHT22;25908;51.984;5.928;2023-06-10T03:55:56;20.60;71.10
39023;DHT22;25908;51.984;5.928;2023-06-10T03:58:22;20.50;71.20
39023;DHT22;25908;51.984;5.928;2023-06-10T04:00:48;20.60;71.40
39023;DHT22;25908;51.984;5.928;2023-06-10T04:03:15;20.50;71.40
39023;DHT22;25908;51.984;5.928;2023-06-10T04:05:41;20.50;71.50
39023;DHT22;25908;51.984;5.928;2023-06-10T04:08:07;20.50;71.70
39023;DHT22;25908;51.984;5.928;2023-06-10T04:10:33;20.40;71.80
39023;DHT22;25908;51.984;5.928;2023-06-10T04:12:59;20.50;72.00
39023;DHT22;25908;51.984;5.928;2023-06-10T04:15:25;20.50;72.10
39023;DHT22;25908;51.984;5.928;2023-06-10T04:17:51;20.40;72.20
39023;DHT22;25908;51.984;5.928;2023-06-10T04:20:18;20.40;72.40
39023;DHT22;25908;51.984;5.928;2023-06-10T04:22:43;20.40;72.60
39023;DHT22;25908;51.984;5.928;2023-06-10T04:25:09;20.40;72.70
39023;DHT22;25908;51.984;5.928;2023-06-10T04:27:35;20.30;72.80
39023;DHT22;25908;51.984;5.928;2023-06-10T04:30:01;20.40;73.00
39023;DHT22;25908;51.984;5.928;2023-06-10T04:32:27;20.30;73.00
39023;DHT22;25908;51.984;5.928;2023-06-10T04:34:52;20.40;73.20
39023;DHT22;25908;51.984;5.928;2023-06-10T04:37:18;20.40;73.20
39023;DHT22;25908;51.984;5.928;2023-06-10T04:39:43;20.30;73.30
39023;DHT22;25908;51.984;5.928;2023-06-10T04:42:09;20.30;73.30
39023;DHT22;25908;51.984;5.928;2023-06-10T04:44:34;20.40;73.50
39023;DHT22;25908;51.984;5.928;2023-06-10T04:47:00;20.40;73.50
39023;DHT22;25908;51.984;5.928;2023-06-10T04:49:26;20.40;73.70
39023;DHT22;25908;51.984;5.928;2023-06-10T04:51:51;20.40;73.70
39023;DHT22;25908;51.984;5.928;2023-06-10T04:54:17;20.40;73.80
39023;DHT22;25908;51.984;5.928;2023-06-10T04:56:42;20.30;73.90
39023;DHT22;25908;51.984;5.928;2023-06-10T04:59:08;20.40;74.00
39023;DHT22;25908;51.984;5.928;2023-06-10T05:01:34;20.40;74.10
39023;DHT22;25908;51.984;5.928;2023-06-10T05:03:59;20.40;74.30
39023;DHT22;25908;51.984;5.928;2023-06-10T05:06:25;20.40;74.30
39023;DHT22;25908;51.984;5.928;2023-06-10T05:08:50;20.40;74.40
39023;DHT22;25908;51.984;5.928;2023-06-10T05:11:16;20.50;74.40
39023;DHT22;25908;51.984;5.928;2023-06-10T05:13:42;20.50;74.40
39023;DHT22;25908;51.984;5.928;2023-06-10T05:16:08;20.50;74.40
39023;DHT22;25908;51.984;5.928;2023-06-10T05:18:34;20.60;74.50
39023;DHT22;25908;51.984;5.928;2023-06-10T05:21:01;20.50;74.40
39023;DHT22;25908;51.984;5.928;2023-06-10T05:23:26;20.60;74.50
39023;DHT22;25908;51.984;5.928;2023-06-10T05:25:52;20.50;74.30
39023;DHT22;25908;51.984;5.928;2023-06-10T05:28:17;20.70;74.30
39023;DHT22;25908;51.984;5.928;2023-06-10T05:30:43;20.80;74.20
39023;DHT22;25908;51.984;5.928;2023-06-10T05:33:09;20.90;74.10
39023;DHT22;25908;51.984;5.928;2023-06-10T05:35:34;21.00;73.90
39023;DHT22;25908;51.984;5.928;2023-06-10T05:38:00;21.10;73.60
39023;DHT22;25908;51.984;5.928;2023-06-10T05:40:25;21.20;73.40
39023;DHT22;25908;51.984;5.928;2023-06-10T05:42:51;21.30;73.20
39023;DHT22;25908;51.984;5.928;2023-06-10T05:45:16;21.50;73.00
39023;DHT22;25908;51.984;5.928;2023-06-10T05:47:42;21.50;72.70
39023;DHT22;25908;51.984;5.928;2023-06-10T05:50:08;21.70;72.40
39023;DHT22;25908;51.984;5.928;2023-06-10T05:52:35;21.70;72.10
39023;DHT22;25908;51.984;5.928;2023-06-10T05:55:02;21.90;71.80
39023;DHT22;25908;51.984;5.928;2023-06-10T05:57:27;22.00;71.50
39023;DHT22;25908;51.984;5.928;2023-06-10T05:59:53;22.10;71.20
39023;DHT22;25908;51.984;5.928;2023-06-10T06:02:18;22.20;71.00
39023;DHT22;25908;51.984;5.928;2023-06-10T06:04:44;22.40;70.60
39023;DHT22;25908;51.984;5.928;2023-06-10T06:07:09;22.50;70.20
39023;DHT22;25908;51.984;5.928;2023-06-10T06:09:35;22.60;69.90
39023;DHT22;25908;51.984;5.928;2023-06-10T06:12:01;22.80;69.30
39023;DHT22;25908;51.984;5.928;2023-06-10T06:14:30;22.90;68.90
39023;DHT22;25908;51.984;5.928;2023-06-10T06:16:56;23.10;68.70
39023;DHT22;25908;51.984;5.928;2023-06-10T06:19:21;23.20;68.40
39023;DHT22;25908;51.984;5.928;2023-06-10T06:21:47;23.50;68.30
39023;DHT22;25908;51.984;5.928;2023-06-10T06:24:13;23.70;67.90
39023;DHT22;25908;51.984;5.928;2023-06-10T06:26:39;24.00;67.30
39023;DHT22;25908;51.984;5.928;2023-06-10T06:29:05;24.20;66.70
39023;DHT22;25908;51.984;5.928;2023-06-10T06:31:30;24.50;66.40
39023;DHT22;25908;51.984;5.928;2023-06-10T06:33:56;24.70;66.00
39023;DHT22;25908;51.984;5.928;2023-06-10T06:36:22;24.90;65.60
39023;DHT22;25908;51.984;5.928;2023-06-10T06:38:47;25.10;65.20
39023;DHT22;25908;51.984;5.928;2023-06-10T06:41:13;25.10;64.50
39023;DHT22;25908;51.984;5.928;2023-06-10T06:43:38;25.30;64.20
39023;DHT22;25908;51.984;5.928;2023-06-10T06:46:05;25.40;64.00
39023;DHT22;25908;51.984;5.928;2023-06-10T06:48:31;25.50;63.80
39023;DHT22;25908;51.984;5.928;2023-06-10T06:50:56;25.70;63.60
39023;DHT22;25908;51.984;5.928;2023-06-10T06:53:23;25.80;63.10
39023;DHT22;25908;51.984;5.928;2023-06-10T06:55:49;26.00;63.10
39023;DHT22;25908;51.984;5.928;2023-06-10T06:58:14;26.10;62.70
39023;DHT22;25908;51.984;5.928;2023-06-10T07:00:40;26.30;62.50
39023;DHT22;25908;51.984;5.928;2023-06-10T07:03:05;26.50;62.40
39023;DHT22;25908;51.984;5.928;2023-06-10T07:05:31;26.60;62.10
39023;DHT22;25908;51.984;5.928;2023-06-10T07:07:56;26.80;61.70
39023;DHT22;25908;51.984;5.928;2023-06-10T07:10:23;26.90;61.00
39023;DHT22;25908;51.984;5.928;2023-06-10T07:12:50;27.00;60.70
39023;DHT22;25908;51.984;5.928;2023-06-10T07:15:16;27.20;60.60
39023;DHT22;25908;51.984;5.928;2023-06-10T07:17:42;27.30;60.50
39023;DHT22;25908;51.984;5.928;2023-06-10T07:20:08;27.50;60.20
39023;DHT22;25908;51.984;5.928;2023-06-10T07:22:33;27.50;59.90
39023;DHT22;25908;51.984;5.928;2023-06-10T07:24:59;27.70;59.80
39023;DHT22;25908;51.984;5.928;2023-06-10T07:27:24;27.90;59.20
39023;DHT22;25908;51.984;5.928;2023-06-10T07:29:51;28.00;58.90
39023;DHT22;25908;51.984;5.928;2023-06-10T07:32:17;28.10;58.80
39023;DHT22;25908;51.984;5.928;2023-06-10T07:34:43;28.20;58.50
39023;DHT22;25908;51.984;5.928;2023-06-10T07:37:08;28.30;58.30
39023;DHT22;25908;51.984;5.928;2023-06-10T07:39:34;28.40;58.00
39023;DHT22;25908;51.984;5.928;2023-06-10T07:42:00;28.50;57.80
39023;DHT22;25908;51.984;5.928;2023-06-10T07:44:25;28.50;57.30
39023;DHT22;25908;51.984;5.928;2023-06-10T07:46:51;28.70;57.70
39023;DHT22;25908;51.984;5.928;2023-06-10T07:49:17;28.70;56.70
39023;DHT22;25908;51.984;5.928;2023-06-10T07:51:42;28.70;56.50
39023;DHT22;25908;51.984;5.928;2023-06-10T07:54:08;28.80;56.20
39023;DHT22;25908;51.984;5.928;2023-06-10T07:56:33;28.80;56.10
39023;DHT22;25908;51.984;5.928;2023-06-10T07:58:59;28.80;56.20
39023;DHT22;25908;51.984;5.928;2023-06-10T08:01:24;28.90;56.00
39023;DHT22;25908;51.984;5.928;2023-06-10T08:03:50;29.00;55.90
39023;DHT22;25908;51.984;5.928;2023-06-10T08:06:15;29.10;55.90
39023;DHT22;25908;51.984;5.928;2023-06-10T08:08:42;29.30;55.90
39023;DHT22;25908;51.984;5.928;2023-06-10T08:11:10;29.40;55.60
39023;DHT22;25908;51.984;5.928;2023-06-10T08:13:36;29.50;55.30
39023;DHT22;25908;51.984;5.928;2023-06-10T08:16:02;29.60;54.90
39023;DHT22;25908;51.984;5.928;2023-06-10T08:18:28;29.70;54.70
39023;DHT22;25908;51.984;5.928;2023-06-10T08:20:54;29.70;54.60
39023;DHT22;25908;51.984;5.928;2023-06-10T08:23:19;29.70;54.20
39023;DHT22;25908;51.984;5.928;2023-06-10T08:25:45;29.70;54.20
39023;DHT22;25908;51.984;5.928;2023-06-10T08:28:11;29.70;54.00
39023;DHT22;25908;51.984;5.928;2023-06-10T08:30:36;29.70;54.20
39023;DHT22;25908;51.984;5.928;2023-06-10T08:33:02;29.70;54.10
39023;DHT22;25908;51.984;5.928;2023-06-10T08:35:28;29.80;54.30
39023;DHT22;25908;51.984;5.928;2023-06-10T08:37:53;29.80;54.30
39023;DHT22;25908;51.984;5.928;2023-06-10T08:40:19;29.90;54.30
39023;DHT22;25908;51.984;5.928;2023-06-10T08:43:06;30.00;54.00
39023;DHT22;25908;51.984;5.928;2023-06-10T08:45:35;30.10;53.40
39023;DHT22;25908;51.984;5.928;2023-06-10T08:48:05;30.10;53.40
39023;DHT22;25908;51.984;5.928;2023-06-10T08:50:35;30.20;53.50
39023;DHT22;25908;51.984;5.928;2023-06-10T08:53:07;30.30;53.50
39023;DHT22;25908;51.984;5.928;2023-06-10T08:55:35;30.40;53.40
39023;DHT22;25908;51.984;5.928;2023-06-10T08:58:02;30.50;53.40
39023;DHT22;25908;51.984;5.928;2023-06-10T09:00:28;30.60;53.30
39023;DHT22;25908;51.984;5.928;2023-06-10T09:02:56;30.80;53.10
39023;DHT22;25908;51.984;5.928;2023-06-10T09:05:22;30.80;52.90
39023;DHT22;25908;51.984;5.928;2023-06-10T09:07:49;30.80;52.60
39023;DHT22;25908;51.984;5.928;2023-06-10T09:10:16;30.80;52.40
39023;DHT22;25908;51.984;5.928;2023-06-10T09:12:41;30.90;52.30
39023;DHT22;25908;51.984;5.928;2023-06-10T09:15:07;30.90;52.10
39023;DHT22;25908;51.984;5.928;2023-06-10T09:17:33;31.00;51.90
39023;DHT22;25908;51.984;5.928;2023-06-10T09:20:02;31.00;52.20
39023;DHT22;25908;51.984;5.928;2023-06-10T09:22:28;31.10;52.20
39023;DHT22;25908;51.984;5.928;2023-06-10T09:25:08;31.20;51.70
39023;DHT22;25908;51.984;5.928;2023-06-10T09:27:47;31.20;51.70
39023;DHT22;25908;51.984;5.928;2023-06-10T09:30:32;31.30;51.20
39023;DHT22;25908;51.984;5.928;2023-06-10T09:33:00;31.30;51.30
39023;DHT22;25908;51.984;5.928;2023-06-10T09:35:28;31.40;51.30
39023;DHT22;25908;51.984;5.928;2023-06-10T09:37:58;31.50;51.20
39023;DHT22;25908;51.984;5.928;2023-06-10T09:40:24;31.60;51.20
39023;DHT22;25908;51.984;5.928;2023-06-10T09:42:58;31.70;50.90
39023;DHT22;25908;51.984;5.928;2023-06-10T09:45:29;31.70;50.90
39023;DHT22;25908;51.984;5.928;2023-06-10T09:47:56;31.80;51.70
39023;DHT22;25908;51.984;5.928;2023-06-10T09:50:22;31.90;50.80
39023;DHT22;25908;51.984;5.928;2023-06-10T09:52:48;31.90;50.50
39023;DHT22;25908;51.984;5.928;2023-06-10T09:55:14;31.90;50.40
39023;DHT22;25908;51.984;5.928;2023-06-10T09:57:40;32.00;50.00
39023;DHT22;25908;51.984;5.928;2023-06-10T10:00:08;32.00;49.90
39023;DHT22;25908;51.984;5.928;2023-06-10T10:02:53;32.10;49.70
39023;DHT22;25908;51.984;5.928;2023-06-10T10:05:20;32.00;49.50
39023;DHT22;25908;51.984;5.928;2023-06-10T10:07:46;32.00;49.30
39023;DHT22;25908;51.984;5.928;2023-06-10T10:10:14;32.00;49.40
39023;DHT22;25908;51.984;5.928;2023-06-10T10:12:41;31.90;49.30
39023;DHT22;25908;51.984;5.928;2023-06-10T10:15:09;31.90;49.20
39023;DHT22;25908;51.984;5.928;2023-06-10T10:18:07;31.90;48.90
39023;DHT22;25908;51.984;5.928;2023-06-10T10:20:39;31.90;48.60
39023;DHT22;25908;51.984;5.928;2023-06-10T10:23:08;31.80;48.40
39023;DHT22;25908;51.984;5.928;2023-06-10T10:25:37;31.80;48.50
39023;DHT22;25908;51.984;5.928;2023-06-10T10:30:30;31.90;48.10
39023;DHT22;25908;51.984;5.928;2023-06-10T10:33:09;32.00;48.10
39023;DHT22;25908;51.984;5.928;2023-06-10T10:35:38;32.00;47.50
39023;DHT22;25908;51.984;5.928;2023-06-10T10:38:05;32.10;47.50
39023;DHT22;25908;51.984;5.928;2023-06-10T10:40:32;32.10;47.10
39023;DHT22;25908;51.984;5.928;2023-06-10T10:42:58;32.10;46.70
39023;DHT22;25908;51.984;5.928;2023-06-10T10:45:27;32.10;46.70
39023;DHT22;25908;51.984;5.928;2023-06-10T10:47:54;32.10;46.70
39023;DHT22;25908;51.984;5.928;2023-06-10T10:50:21;32.10;46.50
39023;DHT22;25908;51.984;5.928;2023-06-10T10:52:56;32.10;45.60
39023;DHT22;25908;51.984;5.928;2023-06-10T10:55:22;32.10;45.20
39023;DHT22;25908;51.984;5.928;2023-06-10T10:58:07;32.00;45.10
39023;DHT22;25908;51.984;5.928;2023-06-10T11:00:45;32.00;45.40
39023;DHT22;25908;51.984;5.928;2023-06-10T11:03:15;32.10;45.70
39023;DHT22;25908;51.984;5.928;2023-06-10T11:05:43;32.10;45.50
39023;DHT22;25908;51.984;5.928;2023-06-10T11:08:13;32.10;45.30
39023;DHT22;25908;51.984;5.928;2023-06-10T11:10:51;32.10;45.20
39023;DHT22;25908;51.984;5.928;2023-06-10T11:13:20;32.00;45.10
39023;DHT22;25908;51.984;5.928;2023-06-10T11:15:47;31.90;44.70
39023;DHT22;25908;51.984;5.928;2023-06-10T11:20:45;31.90;44.60
39023;DHT22;25908;51.984;5.928;2023-06-10T11:25:51;32.00;44.80
39023;DHT22;25908;51.984;5.928;2023-06-10T11:28:20;32.00;44.90
39023;DHT22;25908;51.984;5.928;2023-06-10T11:30:57;32.10;44.70
39023;DHT22;25908;51.984;5.928;2023-06-10T11:33:23;32.00;44.00
39023;DHT22;25908;51.984;5.928;2023-06-10T11:35:50;32.00;44.50
39023;DHT22;25908;51.984;5.928;2023-06-10T11:38:15;32.00;44.70
39023;DHT22;25908;51.984;5.928;2023-06-10T11:40:49;32.10;44.40
39023;DHT22;25908;51.984;5.928;2023-06-10T11:43:18;32.10;44.20
39023;DHT22;25908;51.984;5.928;2023-06-10T11:45:44;32.10;44.00
39023;DHT22;25908;51.984;5.928;2023-06-10T11:48:10;32.00;44.10
39023;DHT22;25908;51.984;5.928;2023-06-10T11:50:36;32.10;44.50
39023;DHT22;25908;51.984;5.928;2023-06-10T11:53:02;32.10;44.50
39023;DHT22;25908;51.984;5.928;2023-06-10T11:55:46;32.10;44.20
39023;DHT22;25908;51.984;5.928;2023-06-10T11:58:21;32.00;44.20
39023;DHT22;25908;51.984;5.928;2023-06-10T12:00:55;32.00;44.20
39023;DHT22;25908;51.984;5.928;2023-06-10T12:03:24;31.90;44.00
39023;DHT22;25908;51.984;5.928;2023-06-10T12:06:09;31.90;44.10
39023;DHT22;25908;51.984;5.928;2023-06-10T12:08:41;31.80;43.40
39023;DHT22;25908;51.984;5.928;2023-06-10T12:11:07;31.80;43.70
39023;DHT22;25908;51.984;5.928;2023-06-10T12:13:33;31.70;43.80
39023;DHT22;25908;51.984;5.928;2023-06-10T12:16:08;31.60;44.00
39023;DHT22;25908;51.984;5.928;2023-06-10T12:18:34;31.70;44.60
39023;DHT22;25908;51.984;5.928;2023-06-10T12:21:00;31.60;44.50
39023;DHT22;25908;51.984;5.928;2023-06-10T12:23:26;31.60;44.50
39023;DHT22;25908;51.984;5.928;2023-06-10T12:25:53;31.50;43.90
39023;DHT22;25908;51.984;5.928;2023-06-10T12:28:25;31.40;44.10
39023;DHT22;25908;51.984;5.928;2023-06-10T12:30:51;31.30;43.80
39023;DHT22;25908;51.984;5.928;2023-06-10T12:33:18;31.30;44.10
39023;DHT22;25908;51.984;5.928;2023-06-10T12:35:48;31.20;44.00
39023;DHT22;25908;51.984;5.928;2023-06-10T12:38:14;31.10;44.20
39023;DHT22;25908;51.984;5.928;2023-06-10T12:40:47;31.00;44.40
39023;DHT22;25908;51.984;5.928;2023-06-10T12:43:12;30.90;44.30
39023;DHT22;25908;51.984;5.928;2023-06-10T12:45:39;30.90;44.10
39023;DHT22;25908;51.984;5.928;2023-06-10T12:48:16;30.90;44.30
39023;DHT22;25908;51.984;5.928;2023-06-10T12:50:42;30.80;44.40
39023;DHT22;25908;51.984;5.928;2023-06-10T12:53:10;30.80;44.70
39023;DHT22;25908;51.984;5.928;2023-06-10T12:55:37;30.80;44.70
39023;DHT22;25908;51.984;5.928;2023-06-10T12:58:03;30.80;44.70
39023;DHT22;25908;51.984;5.928;2023-06-10T13:00:29;30.70;44.60
39023;DHT22;25908;51.984;5.928;2023-06-10T13:03:00;30.70;44.60
39023;DHT22;25908;51.984;5.928;2023-06-10T13:05:27;30.70;44.40
39023;DHT22;25908;51.984;5.928;2023-06-10T13:07:54;30.60;44.70
39023;DHT22;25908;51.984;5.928;2023-06-10T13:10:20;30.50;44.80
39023;DHT22;25908;51.984;5.928;2023-06-10T13:12:46;30.50;45.10
39023;DHT22;25908;51.984;5.928;2023-06-10T13:15:13;30.50;45.50
39023;DHT22;25908;51.984;5.928;2023-06-10T13:17:40;30.40;45.40
39023;DHT22;25908;51.984;5.928;2023-06-10T13:20:07;30.30;45.20
39023;DHT22;25908;51.984;5.928;2023-06-10T13:22:33;30.20;45.30
39023;DHT22;25908;51.984;5.928;2023-06-10T13:25:00;30.10;45.20
39023;DHT22;25908;51.984;5.928;2023-06-10T13:27:26;30.10;45.30
39023;DHT22;25908;51.984;5.928;2023-06-10T13:29:52;30.00;45.30
39023;DHT22;25908;51.984;5.928;2023-06-10T13:32:18;30.00;45.30
39023;DHT22;25908;51.984;5.928;2023-06-10T13:34:44;30.00;45.40
39023;DHT22;25908;51.984;5.928;2023-06-10T13:37:09;29.90;45.40
39023;DHT22;25908;51.984;5.928;2023-06-10T13:39:35;29.90;45.40
39023;DHT22;25908;51.984;5.928;2023-06-10T13:42:01;29.90;45.50
39023;DHT22;25908;51.984;5.928;2023-06-10T13:44:26;29.90;45.40
39023;DHT22;25908;51.984;5.928;2023-06-10T13:46:56;29.80;45.20
39023;DHT22;25908;51.984;5.928;2023-06-10T13:49:21;29.80;45.30
39023;DHT22;25908;51.984;5.928;2023-06-10T13:51:47;29.80;45.40
39023;DHT22;25908;51.984;5.928;2023-06-10T13:54:13;29.80;45.60
39023;DHT22;25908;51.984;5.928;2023-06-10T13:56:41;29.70;45.60
39023;DHT22;25908;51.984;5.928;2023-06-10T13:59:06;29.70;45.50
39023;DHT22;25908;51.984;5.928;2023-06-10T14:01:32;29.70;45.50
39023;DHT22;25908;51.984;5.928;2023-06-10T14:03:57;29.70;45.60
39023;DHT22;25908;51.984;5.928;2023-06-10T14:06:23;29.70;45.90
39023;DHT22;25908;51.984;5.928;2023-06-10T14:08:48;29.60;45.90
39023;DHT22;25908;51.984;5.928;2023-06-10T14:11:14;29.70;46.00
39023;DHT22;25908;51.984;5.928;2023-06-10T14:13:40;29.60;45.90
39023;DHT22;25908;51.984;5.928;2023-06-10T14:16:06;29.70;45.90
39023;DHT22;25908;51.984;5.928;2023-06-10T14:18:31;29.60;45.60
39023;DHT22;25908;51.984;5.928;2023-06-10T14:20:57;29.60;45.70
39023;DHT22;25908;51.984;5.928;2023-06-10T14:23:22;29.50;45.80
39023;DHT22;25908;51.984;5.928;2023-06-10T14:25:49;29.50;45.80
39023;DHT22;25908;51.984;5.928;2023-06-10T14:28:15;29.50;45.90
39023;DHT22;25908;51.984;5.928;2023-06-10T14:30:40;29.50;45.80
39023;DHT22;25908;51.984;5.928;2023-06-10T14:33:06;29.60;45.70
39023;DHT22;25908;51.984;5.928;2023-06-10T14:35:32;29.50;45.40
39023;DHT22;25908;51.984;5.928;2023-06-10T14:37:57;29.60;45.50
39023;DHT22;25908;51.984;5.928;2023-06-10T14:40:23;29.50;45.60
39023;DHT22;25908;51.984;5.928;2023-06-10T14:42:50;29.50;45.70
39023;DHT22;25908;51.984;5.928;2023-06-10T14:45:15;29.50;45.80
39023;DHT22;25908;51.984;5.928;2023-06-10T14:47:41;29.50;46.50
39023;DHT22;25908;51.984;5.928;2023-06-10T14:50:07;29.50;45.70
39023;DHT22;25908;51.984;5.928;2023-06-10T14:52:32;29.50;45.80
39023;DHT22;25908;51.984;5.928;2023-06-10T14:54:58;29.50;46.00
39023;DHT22;25908;51.984;5.928;2023-06-10T14:57:23;29.40;45.70
39023;DHT22;25908;51.984;5.928;2023-06-10T14:59:49;29.50;45.80
39023;DHT22;25908;51.984;5.928;2023-06-10T15:02:15;29.40;45.80
39023;DHT22;25908;51.984;5.928;2023-06-10T15:04:40;29.50;45.80
39023;DHT22;25908;51.984;5.928;2023-06-10T15:07:06;29.50;45.60
39023;DHT22;25908;51.984;5.928;2023-06-10T15:09:31;29.50;45.50
39023;DHT22;25908;51.984;5.928;2023-06-10T15:11:57;29.50;45.50
39023;DHT22;25908;51.984;5.928;2023-06-10T15:14:24;29.50;45.70
39023;DHT22;25908;51.984;5.928;2023-06-10T15:16:51;29.50;45.80
39023;DHT22;25908;51.984;5.928;2023-06-10T15:19:17;29.50;45.80
39023;DHT22;25908;51.984;5.928;2023-06-10T15:21:42;29.40;45.80
39023;DHT22;25908;51.984;5.928;2023-06-10T15:24:08;29.40;45.70
39023;DHT22;25908;51.984;5.928;2023-06-10T15:26:34;29.40;45.60
39023;DHT22;25908;51.984;5.928;2023-06-10T15:28:59;29.40;45.70
39023;DHT22;25908;51.984;5.928;2023-06-10T15:31:29;29.40;45.70
39023;DHT22;25908;51.984;5.928;2023-06-10T15:33:55;29.40;45.70
39023;DHT22;25908;51.984;5.928;2023-06-10T15:36:21;29.40;45.70
39023;DHT22;25908;51.984;5.928;2023-06-10T15:38:46;29.30;45.60